8°C
Porth, Newquay, Cornwall. UK  Tell A Friend
 Ad **Ad
Updated27/03/2017 03:45 
 


Nearby METAR Reports From


Metar Station     Metar Station     Metar Station     Metar Station     Metar Station
EGHQ Newquay     EGDR Culdrose (navy)     EGDX ST Athan raf     EGDY Yeovitilton (navy)     EGFF Cardiff
EGHH Bournemouth     EGBB Birmingham     EGKA Shoreham-By-Sea     EGOP Pembry Sands     EGTE Exeter Airport
EGGD Bristol     EGHE Scilly     EGJA Alderney     EGJB Guernsey     EGJJ Jersey
France       LFRC Cherbourg/Mauper     LFRB Brest/Guipavas     LFRO Lannion/Servel        
More Metars Here                                
EGHQ - Newquay, United Kingdom
Updated: 26/03/2017 21:20

NOT Current
Few Clouds
Few Clouds
 Wind from E
Wind: E 16 mph , 26 km/h, 14 kts
Temperature: 9°C
Wind Chill: 6°C
Dew Point: 4°C
Humidity: 71%
Barometer: 1019 hPa
Clouds: Few Clouds
Visibility: 6 miles , 10 km
Cloud details: Few Clouds 1494 m
2017/03/26 20:20 EGHQ 262020Z 10014KT 9999 FEW049 09/04 Q1019
EGDR - Culdrose (navy), United Kingdom
Updated: 27/03/2017 02:50
Mist, Overcast
Mist, Overcast
 Wind from ENE
Wind: ENE 15 mph , 24 km/h, 13 kts
Temperature: 9°C
Wind Chill: 6°C
Dew Point: 9°C
Humidity: 100%
Barometer: 1019 hPa
Summary: Mist
Clouds: Overcast
Visibility: 2 miles , 3 km
Cloud details: Partly Cloudy 91 m
Overcast 152 m
2017/03/27 01:50 EGDR 270150Z 07013KT 3000 BR SCT003 OVC005 09/09 Q1019 YLO2
 
EGHC - Lands End, United Kingdom
Updated: 25/03/2017 18:20

NOT Current
Clear
Clear
 Wind from NE
Wind: NE 22 mph , 35 km/h, 19 kts
Temperature: 11°C
Dew Point: 4°C
Humidity: 62%
Barometer: 1021 hPa
Summary: Clear
Visibility: greater than 7 miles , 10 km
2017/03/25 18:20 EGHC 251820Z 05019KT CAVOK 11/04 Q1021
EGHE - Scilly Saint Mar, United Kingdom
Updated: 25/03/2017 18:20

NOT Current
Clear
Clear
 Wind from NE
Wind: NE 22 mph , 35 km/h, 19 kts
Temperature: 11°C
Dew Point: 6°C
Humidity: 72%
Barometer: 1022 hPa
Summary: Clear
Visibility: greater than 7 miles , 10 km
2017/03/25 18:20 EGHE 251820Z 04019KT CAVOK 11/06 Q1022
 
EGTE - Exeter Airport, United Kingdom
Updated: 27/03/2017 02:20

NOT Current
Clear
Clear
 Wind from NNW
Wind: NNW 5 mph , 7 km/h, 4 kts
Temperature: 5°C
Wind Chill: 3°C
Dew Point: 3°C
Humidity: 87%
Barometer: 1021 hPa
Summary: Clear
Visibility: greater than 7 miles , 10 km
2017/03/27 01:20 EGTE 270120Z 34004KT CAVOK 05/03 Q1021
EGOP - Pembry Sands, United Kingdom
Updated: 27/03/2017 02:50
Clear
Clear
 Wind from NE
Wind: NE 7 mph , 11 km/h, 6 kts
Temperature: 7°C
Wind Chill: 5°C
Dew Point: 3°C
Humidity: 76%
Barometer: 1021 hPa
Clouds: Clear
Visibility: 6 miles , 10 km
2017/03/27 01:50 EGOP 270150Z AUTO 05006KT 9999 // NCD 07/03 Q1021
 
EGDX - St Athan Raf, United Kingdom
Updated: 27/03/2017 02:50
Clear
Clear
 Wind from ENE
Wind: ENE 12 mph , 19 km/h, 10 kts
Temperature: 8°C
Wind Chill: 4°C
Dew Point: 5°C
Humidity: 82%
Barometer: 1021 hPa
Clouds: Clear
Visibility: 6 miles , 10 km
2017/03/27 01:50 EGDX 270150Z AUTO 07010KT 9999 NCD 08/05 Q1021
EGFF - Cardiff-Wales Ar, United Kingdom
Updated: 27/03/2017 03:20
Clear
Clear
 Wind from ENE
Wind: ENE 15 mph , 24 km/h, 13 kts
Temperature: 8°C
Wind Chill: 4°C
Dew Point: 5°C
Humidity: 82%
Barometer: 1022 hPa
Clouds: Clear
Visibility: 6 miles , 10 km
2017/03/27 02:20 EGFF 270220Z AUTO 07013KT 9999 NCD 08/05 Q1022
 
EGDY - Yeovilton (navy), United Kingdom
Updated: 27/03/2017 02:50
Clear
Clear
 Wind from NE
Wind: NE 7 mph , 11 km/h, 6 kts
Temperature: 5°C
Wind Chill: 2°C
Dew Point: 3°C
Humidity: 87%
Barometer: 1021 hPa
Summary: Clear
Visibility: greater than 7 miles , 10 km
2017/03/27 01:50 EGDY 270150Z 05006KT CAVOK 05/03 Q1021 BLU
EGGD - Bristol/Lulsgate, United Kingdom
Updated: 27/03/2017 03:20
Clear
Clear
 Wind from NE
Wind: NE 12 mph , 19 km/h, 10 kts
Temperature: 6°C
Wind Chill: 3°C
Dew Point: 4°C
Humidity: 87%
Barometer: 1022 hPa
Clouds: Clear
Visibility: 6 miles , 10 km
2017/03/27 02:20 EGGD 270220Z AUTO 04010KT 9999 NCD 06/04 Q1022
 
EGBB - Birmingham Airpo, United Kingdom
Updated: 27/03/2017 03:20
Overcast
Overcast
 Wind from ENE
Wind: ENE 7 mph , 11 km/h, 6 kts
Temperature: 4°C
Wind Chill: 1°C
Dew Point: 4°C
Humidity: 100%
Barometer: 1024 hPa
Clouds: Overcast
Visibility: 6 miles , 9 km
Cloud details: Overcast 152 m
2017/03/27 02:20 EGBB 270220Z 06006KT 9000 OVC005 04/04 Q1024
EGHH - Bournemouth Airp, United Kingdom
Updated: 26/03/2017 23:20

NOT Current
Clear
Clear
 Wind from ENE
Wind: ENE 8 mph , 13 km/h, 7 kts
Temperature: 9°C
Wind Chill: 7°C
Dew Point: 3°C
Humidity: 66%
Barometer: 1022 hPa
Summary: Clear
Visibility: greater than 7 miles , 10 km
2017/03/26 22:20 EGHH 262220Z 07007KT CAVOK 09/03 Q1022
 
EGKA - Shoreham-By-Sea, United Kingdom
Updated: 26/03/2017 18:50

NOT Current
Clear
Clear
 Wind from NE
Wind: NE 13 mph , 20 km/h, 11 kts
Temperature: 12°C
Dew Point: 4°C
Humidity: 58%
Barometer: 1021 hPa
Summary: Clear
Visibility: greater than 7 miles , 10 km
2017/03/26 17:50 EGKA 261750Z 04011KT CAVOK 12/04 Q1021
EGJA - Alderney/Channel, United Kingdom
Updated: 26/03/2017 19:20

NOT Current
Clear
Clear
 Wind from E
Wind: E 10 mph , 17 km/h, 9 kts
Temperature: 9°C
Wind Chill: 7°C
Dew Point: 7°C
Humidity: 87%
Barometer: 1019 hPa
Summary: Clear
Visibility: greater than 7 miles , 10 km
2017/03/26 18:20 EGJA 261820Z 09009KT CAVOK 09/07 Q1019
 
EGJB - Guernsey Airport, United Kingdom
Updated: 26/03/2017 20:50

NOT Current
Clear
Clear
 Wind from E
Wind: E 10 mph , 17 km/h, 9 kts
Temperature: 9°C
Wind Chill: 7°C
Dew Point: 6°C
Humidity: 82%
Barometer: 1019 hPa
Summary: Clear
Visibility: greater than 7 miles , 10 km
2017/03/26 19:50 EGJB 261950Z 08009KT CAVOK 09/06 Q1019
EGJJ - Jersey Airport, United Kingdom
Updated: 26/03/2017 20:50

NOT Current
Clear
Clear
 Wind from E
Wind: E 10 mph , 17 km/h, 9 kts
Temperature: 9°C
Wind Chill: 7°C
Dew Point: 6°C
Humidity: 82%
Barometer: 1019 hPa
Summary: Clear
Visibility: greater than 7 miles , 10 km
2017/03/26 19:50 EGJJ 261950Z 10009KT CAVOK 09/06 Q1019 NOSIG
 
LFRC - Cherbourg/Mauper, France
Updated: 27/03/2017 03:30
Mist, Partly cloudy
Mist, Partly cloudy
 Wind from ESE
Wind: ESE 5 mph , 7 km/h, 4 kts
Temperature: 8°C
Wind Chill: 7°C
Dew Point: 7°C
Humidity: 93%
Barometer: 1020 hPa
Summary: Mist
Clouds: Partly Cloudy
Visibility: 3 miles , 5 km
2017/03/27 02:30 LFRC 270230Z AUTO 12004KT 5000 BR NSC 08/07 Q1020
LFRB - Brest/Guipavas, France
Updated: 27/03/2017 03:30
Clear
Clear
 Wind from E
Wind: E 8 mph , 13 km/h, 7 kts
Temperature: 9°C
Wind Chill: 7°C
Dew Point: 5°C
Humidity: 76%
Barometer: 1017 hPa
Summary: Clear
Visibility: greater than 7 miles , 10 km
2017/03/27 02:30 LFRB 270230Z AUTO 09007KT CAVOK 09/05 Q1017 NOSIG
 
LFRO - Lannion/Servel, France
Updated: 27/03/2017 03:30
Clear
Clear
 Wind from E
Wind: E 5 mph , 7 km/h, 4 kts
Temperature: 6°C
Wind Chill: 4°C
Dew Point: 5°C
Humidity: 93%
Barometer: 1018 hPa
Summary: Clear
Visibility: greater than 7 miles , 10 km
2017/03/27 02:30 LFRO 270230Z AUTO 10004KT CAVOK 06/05 Q1018

# Note Plymouth airport closed 23/12/2011

Metar, brief description

METAR is a format for reporting weather information. A METAR weather report is predominantly used by pilots in fulfillment of a part of a pre-flight weather briefing, and by meteorologists, who use aggregated METAR information to assist in weather forecasting.

Raw METAR is the most popular format in the world for the transmission of weather data. Each METAR report contains essential information about the current weather conditions: Temperature, Dew Point, Barometric Pressure, Wind Speed and Direction, Visibility, Clouds Cover, Current Weather (Rain, Thunderstorms, Hail, Snow and so on...), here is an example of a raw metar report for EGHQ (Newquay airport).
METAR not available